sensor_id;sensor_type;location;lat;lon;timestamp;pressure;altitude;pressure_sealevel;temperature;humidity
13013;BME280;22580;57.670;12.006;2023-01-29T00:01:48;101519.56;;;10.39;100.00
13013;BME280;22580;57.670;12.006;2023-01-29T00:04:15;101450.56;;;10.00;100.00
13013;BME280;22580;57.670;12.006;2023-01-29T00:06:42;101467.28;;;9.88;100.00
13013;BME280;22580;57.670;12.006;2023-01-29T00:09:09;101503.28;;;10.12;100.00
13013;BME280;22580;57.670;12.006;2023-01-29T00:11:36;101486.63;;;10.39;100.00
13013;BME280;22580;57.670;12.006;2023-01-29T00:14:03;101502.94;;;10.34;100.00
13013;BME280;22580;57.670;12.006;2023-01-29T00:16:30;101504.16;;;10.29;100.00
13013;BME280;22580;57.670;12.006;2023-01-29T00:18:59;101506.38;;;10.36;100.00
13013;BME280;22580;57.670;12.006;2023-01-29T00:21:26;101410.00;;;9.62;100.00
13013;BME280;22580;57.670;12.006;2023-01-29T00:23:55;101504.75;;;10.34;100.00
13013;BME280;22580;57.670;12.006;2023-01-29T00:26:22;101495.69;;;10.36;100.00
13013;BME280;22580;57.670;12.006;2023-01-29T00:28:49;101498.31;;;10.22;100.00
13013;BME280;22580;57.670;12.006;2023-01-29T00:31:19;101486.75;;;10.22;100.00
13013;BME280;22580;57.670;12.006;2023-01-29T00:33:46;101461.91;;;10.04;100.00
13013;BME280;22580;57.670;12.006;2023-01-29T00:36:16;101482.72;;;10.44;100.00
13013;BME280;22580;57.670;12.006;2023-01-29T00:38:45;101464.56;;;10.35;100.00
13013;BME280;22580;57.670;12.006;2023-01-29T00:41:19;101465.78;;;10.60;100.00
13013;BME280;22580;57.670;12.006;2023-01-29T00:44:05;101480.81;;;10.76;100.00
13013;BME280;22580;57.670;12.006;2023-01-29T00:46:49;101471.25;;;10.72;100.00
13013;BME280;22580;57.670;12.006;2023-01-29T00:49:16;101474.31;;;10.80;100.00
13013;BME280;22580;57.670;12.006;2023-01-29T00:51:45;101481.31;;;10.83;100.00
13013;BME280;22580;57.670;12.006;2023-01-29T00:54:33;101468.59;;;10.87;100.00
13013;BME280;22580;57.670;12.006;2023-01-29T00:57:00;101455.91;;;10.46;100.00
13013;BME280;22580;57.670;12.006;2023-01-29T00:59:27;101467.81;;;10.70;100.00
13013;BME280;22580;57.670;12.006;2023-01-29T01:01:54;101459.59;;;10.73;100.00
13013;BME280;22580;57.670;12.006;2023-01-29T01:04:38;101460.38;;;10.75;100.00
13013;BME280;22580;57.670;12.006;2023-01-29T01:07:07;101467.47;;;10.91;100.00
13013;BME280;22580;57.670;12.006;2023-01-29T01:09:34;101465.47;;;11.08;100.00
13013;BME280;22580;57.670;12.006;2023-01-29T01:12:19;101456.97;;;11.02;100.00
13013;BME280;22580;57.670;12.006;2023-01-29T01:14:46;101457.94;;;11.01;100.00
13013;BME280;22580;57.670;12.006;2023-01-29T01:17:14;101463.91;;;10.76;100.00
13013;BME280;22580;57.670;12.006;2023-01-29T01:19:41;101374.50;;;10.66;100.00
13013;BME280;22580;57.670;12.006;2023-01-29T01:22:09;101460.13;;;11.23;100.00
13013;BME280;22580;57.670;12.006;2023-01-29T01:24:36;101467.09;;;10.97;100.00
13013;BME280;22580;57.670;12.006;2023-01-29T01:27:04;101428.38;;;10.88;100.00
13013;BME280;22580;57.670;12.006;2023-01-29T01:29:31;101465.25;;;11.40;100.00
13013;BME280;22580;57.670;12.006;2023-01-29T01:31:58;101410.06;;;11.25;100.00
13013;BME280;22580;57.670;12.006;2023-01-29T01:34:29;101442.06;;;11.26;100.00
13013;BME280;22580;57.670;12.006;2023-01-29T01:37:06;101418.94;;;11.11;100.00
13013;BME280;22580;57.670;12.006;2023-01-29T01:39:34;101450.81;;;11.42;100.00
13013;BME280;22580;57.670;12.006;2023-01-29T01:42:01;101441.84;;;11.43;100.00
13013;BME280;22580;57.670;12.006;2023-01-29T01:44:51;101449.31;;;10.96;100.00
13013;BME280;22580;57.670;12.006;2023-01-29T01:47:22;101469.28;;;10.90;100.00
13013;BME280;22580;57.670;12.006;2023-01-29T01:49:51;101411.97;;;10.94;100.00
13013;BME280;22580;57.670;12.006;2023-01-29T01:52:19;101378.53;;;10.87;100.00
13013;BME280;22580;57.670;12.006;2023-01-29T01:54:48;101460.53;;;11.16;100.00
13013;BME280;22580;57.670;12.006;2023-01-29T01:57:22;101447.88;;;10.90;100.00
13013;BME280;22580;57.670;12.006;2023-01-29T01:59:55;101410.91;;;11.11;100.00
13013;BME280;22580;57.670;12.006;2023-01-29T02:02:24;101415.69;;;11.20;100.00
13013;BME280;22580;57.670;12.006;2023-01-29T02:05:13;101412.94;;;11.07;100.00
13013;BME280;22580;57.670;12.006;2023-01-29T02:07:58;101378.34;;;10.90;100.00
13013;BME280;22580;57.670;12.006;2023-01-29T02:10:45;101385.69;;;11.15;100.00
13013;BME280;22580;57.670;12.006;2023-01-29T02:13:14;101408.84;;;11.43;100.00
13013;BME280;22580;57.670;12.006;2023-01-29T02:15:43;101413.69;;;11.09;100.00
13013;BME280;22580;57.670;12.006;2023-01-29T02:18:13;101415.78;;;11.19;100.00
13013;BME280;22580;57.670;12.006;2023-01-29T02:20:46;101383.88;;;11.15;100.00
13013;BME280;22580;57.670;12.006;2023-01-29T02:26:37;101390.28;;;10.99;100.00
13013;BME280;22580;57.670;12.006;2023-01-29T02:29:09;101375.47;;;11.07;100.00
13013;BME280;22580;57.670;12.006;2023-01-29T02:32:06;101385.63;;;11.29;100.00
13013;BME280;22580;57.670;12.006;2023-01-29T02:34:44;101386.31;;;11.33;100.00
13013;BME280;22580;57.670;12.006;2023-01-29T02:37:33;101397.69;;;11.36;100.00
13013;BME280;22580;57.670;12.006;2023-01-29T02:40:08;101393.81;;;11.55;100.00
13013;BME280;22580;57.670;12.006;2023-01-29T02:42:45;101388.94;;;11.61;100.00
13013;BME280;22580;57.670;12.006;2023-01-29T02:45:17;101389.75;;;11.76;100.00
13013;BME280;22580;57.670;12.006;2023-01-29T02:47:48;101377.59;;;11.85;100.00
13013;BME280;22580;57.670;12.006;2023-01-29T02:50:22;101374.53;;;11.35;100.00
13013;BME280;22580;57.670;12.006;2023-01-29T02:52:55;101372.91;;;11.47;100.00
13013;BME280;22580;57.670;12.006;2023-01-29T02:55:29;101369.53;;;11.16;100.00
13013;BME280;22580;57.670;12.006;2023-01-29T02:58:04;101367.75;;;11.30;100.00
13013;BME280;22580;57.670;12.006;2023-01-29T03:00:37;101356.63;;;11.50;100.00
13013;BME280;22580;57.670;12.006;2023-01-29T03:03:09;101354.25;;;11.19;100.00
13013;BME280;22580;57.670;12.006;2023-01-29T03:05:44;101298.28;;;10.87;100.00
13013;BME280;22580;57.670;12.006;2023-01-29T03:08:22;101299.31;;;10.99;100.00
13013;BME280;22580;57.670;12.006;2023-01-29T03:11:03;101330.72;;;11.50;100.00
13013;BME280;22580;57.670;12.006;2023-01-29T03:13:35;101305.31;;;11.16;100.00
13013;BME280;22580;57.670;12.006;2023-01-29T03:16:13;101322.78;;;11.49;100.00
13013;BME280;22580;57.670;12.006;2023-01-29T03:18:46;101325.56;;;11.74;100.00
13013;BME280;22580;57.670;12.006;2023-01-29T03:21:19;101344.81;;;11.81;100.00
13013;BME280;22580;57.670;12.006;2023-01-29T03:24:05;101307.13;;;11.43;100.00
13013;BME280;22580;57.670;12.006;2023-01-29T03:26:52;101331.53;;;11.38;100.00
13013;BME280;22580;57.670;12.006;2023-01-29T03:29:38;101340.31;;;11.67;100.00
13013;BME280;22580;57.670;12.006;2023-01-29T03:32:26;101335.06;;;11.66;100.00
13013;BME280;22580;57.670;12.006;2023-01-29T03:34:57;101331.88;;;11.73;100.00
13013;BME280;22580;57.670;12.006;2023-01-29T03:37:32;101329.31;;;11.45;100.00
13013;BME280;22580;57.670;12.006;2023-01-29T03:40:02;101317.94;;;11.14;100.00
13013;BME280;22580;57.670;12.006;2023-01-29T03:42:37;101303.78;;;11.39;100.00
13013;BME280;22580;57.670;12.006;2023-01-29T03:45:14;101309.56;;;11.60;100.00
13013;BME280;22580;57.670;12.006;2023-01-29T03:47:47;101317.19;;;11.39;100.00
13013;BME280;22580;57.670;12.006;2023-01-29T03:50:30;101306.38;;;11.41;100.00
13013;BME280;22580;57.670;12.006;2023-01-29T03:53:03;101255.84;;;11.49;100.00
13013;BME280;22580;57.670;12.006;2023-01-29T03:55:36;101296.16;;;11.60;100.00
13013;BME280;22580;57.670;12.006;2023-01-29T03:58:14;101299.50;;;11.91;100.00
13013;BME280;22580;57.670;12.006;2023-01-29T04:00:51;101305.41;;;11.96;100.00
13013;BME280;22580;57.670;12.006;2023-01-29T04:03:25;101317.53;;;11.74;100.00
13013;BME280;22580;57.670;12.006;2023-01-29T04:05:58;101282.88;;;11.86;100.00
13013;BME280;22580;57.670;12.006;2023-01-29T04:08:39;101297.19;;;11.45;100.00
13013;BME280;22580;57.670;12.006;2023-01-29T04:11:13;101294.41;;;11.20;100.00
13013;BME280;22580;57.670;12.006;2023-01-29T04:13:41;101266.59;;;11.62;100.00
13013;BME280;22580;57.670;12.006;2023-01-29T04:16:13;101258.53;;;11.49;100.00
13013;BME280;22580;57.670;12.006;2023-01-29T04:18:45;101276.47;;;12.01;100.00
13013;BME280;22580;57.670;12.006;2023-01-29T04:21:13;101273.38;;;11.67;100.00
13013;BME280;22580;57.670;12.006;2023-01-29T04:23:40;101280.75;;;11.64;100.00
13013;BME280;22580;57.670;12.006;2023-01-29T04:26:26;101279.19;;;11.74;100.00
13013;BME280;22580;57.670;12.006;2023-01-29T04:29:09;101231.13;;;11.45;100.00
13013;BME280;22580;57.670;12.006;2023-01-29T04:31:44;101262.09;;;11.89;100.00
13013;BME280;22580;57.670;12.006;2023-01-29T04:34:22;101270.50;;;11.43;100.00
13013;BME280;22580;57.670;12.006;2023-01-29T04:36:58;101269.03;;;11.79;100.00
13013;BME280;22580;57.670;12.006;2023-01-29T04:39:33;101267.13;;;11.81;100.00
13013;BME280;22580;57.670;12.006;2023-01-29T04:42:08;101265.75;;;12.01;100.00
13013;BME280;22580;57.670;12.006;2023-01-29T04:44:40;101248.81;;;11.88;100.00
13013;BME280;22580;57.670;12.006;2023-01-29T04:47:17;101246.25;;;12.24;100.00
13013;BME280;22580;57.670;12.006;2023-01-29T04:49:55;101260.72;;;12.22;100.00
13013;BME280;22580;57.670;12.006;2023-01-29T04:52:32;101216.03;;;11.97;100.00
13013;BME280;22580;57.670;12.006;2023-01-29T04:55:05;101206.50;;;11.93;100.00
13013;BME280;22580;57.670;12.006;2023-01-29T04:57:40;101231.00;;;12.25;100.00
13013;BME280;22580;57.670;12.006;2023-01-29T05:00:13;101232.44;;;12.05;100.00
13013;BME280;22580;57.670;12.006;2023-01-29T05:02:43;101145.88;;;11.39;100.00
13013;BME280;22580;57.670;12.006;2023-01-29T05:05:13;101218.06;;;11.93;100.00
13013;BME280;22580;57.670;12.006;2023-01-29T05:07:42;101214.97;;;12.12;100.00
13013;BME280;22580;57.670;12.006;2023-01-29T05:10:13;101172.63;;;12.04;100.00
13013;BME280;22580;57.670;12.006;2023-01-29T05:12:43;101198.34;;;11.81;100.00
13013;BME280;22580;57.670;12.006;2023-01-29T05:15:17;101098.53;;;11.27;100.00
13013;BME280;22580;57.670;12.006;2023-01-29T05:17:46;101183.41;;;12.15;100.00
13013;BME280;22580;57.670;12.006;2023-01-29T05:20:15;101157.59;;;12.14;100.00
13013;BME280;22580;57.670;12.006;2023-01-29T05:22:42;101138.28;;;11.46;100.00
13013;BME280;22580;57.670;12.006;2023-01-29T05:25:20;101176.16;;;12.05;100.00
13013;BME280;22580;57.670;12.006;2023-01-29T05:27:48;101170.31;;;11.60;100.00
13013;BME280;22580;57.670;12.006;2023-01-29T05:30:32;101178.84;;;11.40;100.00
13013;BME280;22580;57.670;12.006;2023-01-29T05:32:59;101158.06;;;11.43;100.00
13013;BME280;22580;57.670;12.006;2023-01-29T05:35:28;101157.75;;;11.35;100.00
13013;BME280;22580;57.670;12.006;2023-01-29T05:37:55;101136.59;;;11.70;100.00
13013;BME280;22580;57.670;12.006;2023-01-29T05:40:23;101152.44;;;11.73;100.00
13013;BME280;22580;57.670;12.006;2023-01-29T05:42:50;101157.41;;;11.92;100.00
13013;BME280;22580;57.670;12.006;2023-01-29T05:45:18;101147.56;;;11.93;100.00
13013;BME280;22580;57.670;12.006;2023-01-29T05:47:45;101169.53;;;11.98;100.00
13013;BME280;22580;57.670;12.006;2023-01-29T05:50:13;101090.75;;;11.62;100.00
13013;BME280;22580;57.670;12.006;2023-01-29T05:52:42;101167.06;;;11.82;100.00
13013;BME280;22580;57.670;12.006;2023-01-29T05:55:09;101143.13;;;11.66;100.00
13013;BME280;22580;57.670;12.006;2023-01-29T05:57:36;101119.78;;;11.68;100.00
13013;BME280;22580;57.670;12.006;2023-01-29T06:00:04;101152.91;;;11.93;100.00
13013;BME280;22580;57.670;12.006;2023-01-29T06:02:31;101149.06;;;11.97;100.00
13013;BME280;22580;57.670;12.006;2023-01-29T06:04:58;101142.28;;;12.04;100.00
13013;BME280;22580;57.670;12.006;2023-01-29T06:07:25;101123.34;;;11.94;100.00
13013;BME280;22580;57.670;12.006;2023-01-29T06:09:53;101135.88;;;11.94;100.00
13013;BME280;22580;57.670;12.006;2023-01-29T06:12:23;101064.06;;;11.61;100.00
13013;BME280;22580;57.670;12.006;2023-01-29T06:14:50;101057.09;;;11.58;100.00
13013;BME280;22580;57.670;12.006;2023-01-29T06:17:17;101100.59;;;11.62;100.00
13013;BME280;22580;57.670;12.006;2023-01-29T06:19:44;101084.94;;;12.06;100.00
13013;BME280;22580;57.670;12.006;2023-01-29T06:22:11;101135.09;;;12.54;100.00
13013;BME280;22580;57.670;12.006;2023-01-29T06:24:38;101132.47;;;12.28;100.00
13013;BME280;22580;57.670;12.006;2023-01-29T06:27:06;101114.25;;;12.21;100.00
13013;BME280;22580;57.670;12.006;2023-01-29T06:29:33;101127.50;;;12.11;100.00
13013;BME280;22580;57.670;12.006;2023-01-29T06:32:00;101137.19;;;12.25;100.00
13013;BME280;22580;57.670;12.006;2023-01-29T06:34:27;101146.00;;;11.76;100.00
13013;BME280;22580;57.670;12.006;2023-01-29T06:36:54;101155.97;;;11.74;100.00
13013;BME280;22580;57.670;12.006;2023-01-29T06:39:21;101128.03;;;11.91;100.00
13013;BME280;22580;57.670;12.006;2023-01-29T06:41:48;101093.31;;;11.51;100.00
13013;BME280;22580;57.670;12.006;2023-01-29T06:44:19;101100.81;;;11.71;100.00
13013;BME280;22580;57.670;12.006;2023-01-29T06:46:46;101154.53;;;12.44;100.00
13013;BME280;22580;57.670;12.006;2023-01-29T06:49:13;101149.19;;;12.32;100.00
13013;BME280;22580;57.670;12.006;2023-01-29T06:51:40;101125.59;;;12.37;100.00
13013;BME280;22580;57.670;12.006;2023-01-29T06:54:08;101098.59;;;11.91;100.00
13013;BME280;22580;57.670;12.006;2023-01-29T06:56:35;101116.19;;;12.19;100.00
13013;BME280;22580;57.670;12.006;2023-01-29T06:59:02;101113.59;;;11.80;100.00
13013;BME280;22580;57.670;12.006;2023-01-29T07:01:31;101095.72;;;12.18;100.00
13013;BME280;22580;57.670;12.006;2023-01-29T07:03:58;101035.91;;;12.17;100.00
13013;BME280;22580;57.670;12.006;2023-01-29T07:06:28;101090.41;;;12.05;100.00
13013;BME280;22580;57.670;12.006;2023-01-29T07:08:55;101083.69;;;11.87;100.00
13013;BME280;22580;57.670;12.006;2023-01-29T07:11:22;101021.53;;;11.69;100.00
13013;BME280;22580;57.670;12.006;2023-01-29T07:13:49;101089.28;;;12.20;100.00
13013;BME280;22580;57.670;12.006;2023-01-29T07:16:16;101086.38;;;12.23;100.00
13013;BME280;22580;57.670;12.006;2023-01-29T07:18:45;101095.03;;;12.39;100.00
13013;BME280;22580;57.670;12.006;2023-01-29T07:21:17;101102.81;;;12.55;100.00
13013;BME280;22580;57.670;12.006;2023-01-29T07:23:47;101068.16;;;11.79;100.00
13013;BME280;22580;57.670;12.006;2023-01-29T07:26:17;100955.34;;;10.96;100.00
13013;BME280;22580;57.670;12.006;2023-01-29T07:28:47;100980.09;;;11.62;100.00
13013;BME280;22580;57.670;12.006;2023-01-29T07:31:17;101002.81;;;11.43;100.00
13013;BME280;22580;57.670;12.006;2023-01-29T07:33:48;100956.72;;;11.14;100.00
13013;BME280;22580;57.670;12.006;2023-01-29T07:36:17;101064.06;;;11.99;100.00
13013;BME280;22580;57.670;12.006;2023-01-29T07:38:48;101052.72;;;11.95;100.00
13013;BME280;22580;57.670;12.006;2023-01-29T07:41:17;101051.22;;;11.53;100.00
13013;BME280;22580;57.670;12.006;2023-01-29T07:43:46;101024.44;;;11.78;100.00
13013;BME280;22580;57.670;12.006;2023-01-29T07:46:13;101011.25;;;11.63;100.00
13013;BME280;22580;57.670;12.006;2023-01-29T07:48:40;100978.19;;;11.51;100.00
13013;BME280;22580;57.670;12.006;2023-01-29T07:51:18;101042.75;;;11.72;100.00
13013;BME280;22580;57.670;12.006;2023-01-29T07:53:47;100949.97;;;10.96;100.00
13013;BME280;22580;57.670;12.006;2023-01-29T07:56:16;100895.63;;;10.70;100.00
13013;BME280;22580;57.670;12.006;2023-01-29T07:58:49;100993.81;;;11.57;100.00
13013;BME280;22580;57.670;12.006;2023-01-29T08:01:17;100976.84;;;10.95;100.00
13013;BME280;22580;57.670;12.006;2023-01-29T08:03:44;101009.47;;;11.38;100.00
13013;BME280;22580;57.670;12.006;2023-01-29T08:06:12;100976.59;;;11.36;100.00
13013;BME280;22580;57.670;12.006;2023-01-29T08:08:40;101014.59;;;11.54;100.00
13013;BME280;22580;57.670;12.006;2023-01-29T08:11:08;100964.59;;;11.41;100.00
13013;BME280;22580;57.670;12.006;2023-01-29T08:13:38;101000.88;;;11.84;100.00
13013;BME280;22580;57.670;12.006;2023-01-29T08:16:07;101034.03;;;12.06;100.00
13013;BME280;22580;57.670;12.006;2023-01-29T08:18:37;101015.75;;;11.75;100.00
13013;BME280;22580;57.670;12.006;2023-01-29T08:21:07;101009.25;;;11.41;100.00
13013;BME280;22580;57.670;12.006;2023-01-29T08:23:35;101017.25;;;11.66;100.00
13013;BME280;22580;57.670;12.006;2023-01-29T08:26:07;101003.13;;;11.52;100.00
13013;BME280;22580;57.670;12.006;2023-01-29T08:28:37;100971.13;;;11.37;100.00
13013;BME280;22580;57.670;12.006;2023-01-29T08:31:12;100925.84;;;11.47;100.00
13013;BME280;22580;57.670;12.006;2023-01-29T08:33:46;101008.47;;;12.13;100.00
13013;BME280;22580;57.670;12.006;2023-01-29T08:36:15;100974.31;;;11.68;100.00
13013;BME280;22580;57.670;12.006;2023-01-29T08:38:42;100988.75;;;11.91;100.00
13013;BME280;22580;57.670;12.006;2023-01-29T08:41:10;100982.38;;;12.04;100.00
13013;BME280;22580;57.670;12.006;2023-01-29T08:43:40;100988.19;;;12.22;100.00
13013;BME280;22580;57.670;12.006;2023-01-29T08:46:13;100984.06;;;12.53;100.00
13013;BME280;22580;57.670;12.006;2023-01-29T08:48:40;100993.44;;;12.00;100.00
13013;BME280;22580;57.670;12.006;2023-01-29T08:51:07;101002.63;;;12.08;100.00
13013;BME280;22580;57.670;12.006;2023-01-29T08:53:36;100925.13;;;11.81;100.00
13013;BME280;22580;57.670;12.006;2023-01-29T08:56:05;101001.44;;;12.12;100.00
13013;BME280;22580;57.670;12.006;2023-01-29T08:58:34;100963.94;;;11.63;100.00
13013;BME280;22580;57.670;12.006;2023-01-29T09:01:08;100997.88;;;11.63;100.00
13013;BME280;22580;57.670;12.006;2023-01-29T09:03:37;100937.41;;;11.35;100.00
13013;BME280;22580;57.670;12.006;2023-01-29T09:06:08;100963.56;;;11.19;100.00
13013;BME280;22580;57.670;12.006;2023-01-29T09:08:36;101022.41;;;11.44;100.00
13013;BME280;22580;57.670;12.006;2023-01-29T09:11:03;101020.91;;;11.65;100.00
13013;BME280;22580;57.670;12.006;2023-01-29T09:13:37;101022.41;;;11.31;100.00
13013;BME280;22580;57.670;12.006;2023-01-29T09:16:04;101012.88;;;12.38;100.00
13013;BME280;22580;57.670;12.006;2023-01-29T09:18:31;100995.50;;;12.44;100.00
13013;BME280;22580;57.670;12.006;2023-01-29T09:20:58;101005.94;;;12.95;100.00
13013;BME280;22580;57.670;12.006;2023-01-29T09:23:27;101026.53;;;13.05;100.00
13013;BME280;22580;57.670;12.006;2023-01-29T09:25:55;101024.09;;;13.02;100.00
13013;BME280;22580;57.670;12.006;2023-01-29T09:28:22;101043.16;;;12.99;100.00
13013;BME280;22580;57.670;12.006;2023-01-29T09:30:52;100975.66;;;12.82;100.00
13013;BME280;22580;57.670;12.006;2023-01-29T09:33:23;101006.38;;;13.24;100.00
13013;BME280;22580;57.670;12.006;2023-01-29T09:35:50;100964.56;;;12.86;100.00
13013;BME280;22580;57.670;12.006;2023-01-29T09:38:17;101030.31;;;13.38;100.00
13013;BME280;22580;57.670;12.006;2023-01-29T09:40:51;101012.50;;;13.37;100.00
13013;BME280;22580;57.670;12.006;2023-01-29T09:43:26;101011.50;;;13.38;100.00
13013;BME280;22580;57.670;12.006;2023-01-29T09:46:03;101024.50;;;12.74;100.00
13013;BME280;22580;57.670;12.006;2023-01-29T09:48:37;101011.06;;;12.63;100.00
13013;BME280;22580;57.670;12.006;2023-01-29T09:51:11;100917.75;;;12.44;100.00
13013;BME280;22580;57.670;12.006;2023-01-29T09:53:49;100964.66;;;12.73;100.00
13013;BME280;22580;57.670;12.006;2023-01-29T09:56:21;100993.81;;;13.35;100.00
13013;BME280;22580;57.670;12.006;2023-01-29T09:58:56;100997.84;;;13.52;100.00
13013;BME280;22580;57.670;12.006;2023-01-29T10:01:31;100994.69;;;13.58;100.00
13013;BME280;22580;57.670;12.006;2023-01-29T10:04:18;100972.09;;;13.61;100.00
13013;BME280;22580;57.670;12.006;2023-01-29T10:07:02;100985.41;;;13.85;100.00
13013;BME280;22580;57.670;12.006;2023-01-29T10:09:55;100955.97;;;13.72;100.00
13013;BME280;22580;57.670;12.006;2023-01-29T10:12:51;100971.00;;;13.63;100.00
13013;BME280;22580;57.670;12.006;2023-01-29T10:15:30;100905.28;;;13.11;100.00
13013;BME280;22580;57.670;12.006;2023-01-29T10:18:22;100948.34;;;13.10;100.00
13013;BME280;22580;57.670;12.006;2023-01-29T10:20:59;100960.63;;;13.25;100.00
13013;BME280;22580;57.670;12.006;2023-01-29T10:23:33;100955.59;;;13.21;100.00
13013;BME280;22580;57.670;12.006;2023-01-29T10:26:03;100951.09;;;13.43;100.00
13013;BME280;22580;57.670;12.006;2023-01-29T10:28:47;100937.53;;;13.56;100.00
13013;BME280;22580;57.670;12.006;2023-01-29T10:31:18;100924.22;;;13.77;100.00
13013;BME280;22580;57.670;12.006;2023-01-29T10:33:59;100910.47;;;13.37;100.00
13013;BME280;22580;57.670;12.006;2023-01-29T10:36:47;100922.25;;;13.12;100.00
13013;BME280;22580;57.670;12.006;2023-01-29T10:39:17;100845.75;;;12.51;100.00
13013;BME280;22580;57.670;12.006;2023-01-29T10:42:10;100878.94;;;12.72;100.00
13013;BME280;22580;57.670;12.006;2023-01-29T10:44:49;100885.13;;;12.61;100.00
13013;BME280;22580;57.670;12.006;2023-01-29T10:47:58;100875.78;;;13.00;100.00
13013;BME280;22580;57.670;12.006;2023-01-29T10:50:43;100891.56;;;12.47;100.00
13013;BME280;22580;57.670;12.006;2023-01-29T10:53:30;100832.47;;;12.71;100.00
13013;BME280;22580;57.670;12.006;2023-01-29T10:56:16;100850.66;;;13.35;100.00
13013;BME280;22580;57.670;12.006;2023-01-29T10:58:48;100843.91;;;13.63;100.00
13013;BME280;22580;57.670;12.006;2023-01-29T11:01:17;100842.47;;;13.48;100.00
13013;BME280;22580;57.670;12.006;2023-01-29T11:03:57;100854.50;;;13.64;100.00
13013;BME280;22580;57.670;12.006;2023-01-29T11:06:29;100848.25;;;13.75;100.00
13013;BME280;22580;57.670;12.006;2023-01-29T11:09:00;100817.13;;;13.72;100.00
13013;BME280;22580;57.670;12.006;2023-01-29T11:11:33;100824.69;;;13.99;100.00
13013;BME280;22580;57.670;12.006;2023-01-29T11:14:04;100764.50;;;13.38;100.00
13013;BME280;22580;57.670;12.006;2023-01-29T11:16:39;100833.06;;;13.53;100.00
13013;BME280;22580;57.670;12.006;2023-01-29T11:19:07;100782.97;;;13.63;100.00
13013;BME280;22580;57.670;12.006;2023-01-29T11:21:51;100798.28;;;13.40;100.00
13013;BME280;22580;57.670;12.006;2023-01-29T11:24:19;100744.84;;;12.72;100.00
13013;BME280;22580;57.670;12.006;2023-01-29T11:26:48;100786.66;;;12.74;100.00
13013;BME280;22580;57.670;12.006;2023-01-29T11:29:38;100756.53;;;12.60;100.00
13013;BME280;22580;57.670;12.006;2023-01-29T11:32:11;100778.19;;;13.12;100.00
13013;BME280;22580;57.670;12.006;2023-01-29T11:35:00;100789.44;;;12.95;100.00
13013;BME280;22580;57.670;12.006;2023-01-29T11:37:34;100721.91;;;12.34;100.00
13013;BME280;22580;57.670;12.006;2023-01-29T11:40:34;100769.09;;;12.59;100.00
13013;BME280;22580;57.670;12.006;2023-01-29T11:43:31;100800.06;;;12.86;100.00
13013;BME280;22580;57.670;12.006;2023-01-29T11:46:00;100797.59;;;12.49;100.00
13013;BME280;22580;57.670;12.006;2023-01-29T11:48:42;100775.06;;;12.63;100.00
13013;BME280;22580;57.670;12.006;2023-01-29T11:51:20;100766.16;;;12.51;100.00
13013;BME280;22580;57.670;12.006;2023-01-29T11:53:51;100773.59;;;12.92;100.00
13013;BME280;22580;57.670;12.006;2023-01-29T11:56:22;100773.84;;;12.67;100.00
13013;BME280;22580;57.670;12.006;2023-01-29T11:58:53;100734.47;;;12.67;100.00
13013;BME280;22580;57.670;12.006;2023-01-29T12:01:29;100733.38;;;12.70;100.00
13013;BME280;22580;57.670;12.006;2023-01-29T12:03:58;100752.84;;;12.27;100.00
13013;BME280;22580;57.670;12.006;2023-01-29T12:06:32;100736.16;;;12.35;100.00
13013;BME280;22580;57.670;12.006;2023-01-29T12:09:08;100744.84;;;12.61;100.00
13013;BME280;22580;57.670;12.006;2023-01-29T12:11:37;100695.22;;;11.99;100.00
13013;BME280;22580;57.670;12.006;2023-01-29T12:14:07;100762.38;;;12.42;100.00
13013;BME280;22580;57.670;12.006;2023-01-29T12:16:52;100743.34;;;12.23;100.00
13013;BME280;22580;57.670;12.006;2023-01-29T12:19:30;100728.97;;;12.13;100.00
13013;BME280;22580;57.670;12.006;2023-01-29T12:22:05;100743.69;;;12.07;100.00
13013;BME280;22580;57.670;12.006;2023-01-29T12:24:40;100657.50;;;11.67;100.00
13013;BME280;22580;57.670;12.006;2023-01-29T12:27:14;100714.34;;;12.06;100.00
13013;BME280;22580;57.670;12.006;2023-01-29T12:29:48;100718.72;;;12.07;100.00
13013;BME280;22580;57.670;12.006;2023-01-29T12:32:26;100701.78;;;12.18;100.00
13013;BME280;22580;57.670;12.006;2023-01-29T12:35:01;100703.13;;;12.01;100.00
13013;BME280;22580;57.670;12.006;2023-01-29T12:37:37;100704.50;;;12.51;100.00
13013;BME280;22580;57.670;12.006;2023-01-29T12:40:19;100630.88;;;11.77;100.00
13013;BME280;22580;57.670;12.006;2023-01-29T12:55:52;100611.53;;;11.85;100.00
13013;BME280;22580;57.670;12.006;2023-01-29T12:58:26;100603.28;;;11.99;100.00
13013;BME280;22580;57.670;12.006;2023-01-29T13:00:58;100598.66;;;12.01;100.00
13013;BME280;22580;57.670;12.006;2023-01-29T13:03:33;100575.50;;;11.89;100.00
13013;BME280;22580;57.670;12.006;2023-01-29T13:06:07;100642.47;;;12.22;100.00
13013;BME280;22580;57.670;12.006;2023-01-29T13:08:38;100638.09;;;12.32;100.00
13013;BME280;22580;57.670;12.006;2023-01-29T13:11:14;100637.00;;;12.24;100.00
13013;BME280;22580;57.670;12.006;2023-01-29T13:13:48;100642.22;;;11.80;100.00
13013;BME280;22580;57.670;12.006;2023-01-29T13:16:19;100628.59;;;11.95;100.00